Terminal Aerodrome Forecast
Issued by NWS

Home | Current Version | Previous Version | Text Only | Print | Product List | Glossary On
Versions: 1 2 3 4 5 6 7 8 9 10 11 12 13 14 15 16 17 18
000
FTUS44 KBMX 241355 AAA
TAFANB
TAF AMD
KANB 241355Z 2414/2512 24005KT P6SM VCSH BKN015 OVC025
     FM241700 28007KT P6SM VCSH BKN035
     FM242300 30006KT P6SM BKN120=

USA.gov is the U.S. government's official web portal to all federal, state and local government web resources and services.